sensor_id;sensor_type;location;lat;lon;timestamp;P1;durP1;ratioP1;P2;durP2;ratioP2
78668;SDS011;67984;45.118;20.724;2023-09-07T00:00:36;10.00;;;4.50;;
78668;SDS011;67984;45.118;20.724;2023-09-07T00:10:36;11.17;;;5.43;;
78668;SDS011;67984;45.118;20.724;2023-09-07T00:20:37;7.68;;;5.10;;
78668;SDS011;67984;45.118;20.724;2023-09-07T00:30:38;8.05;;;4.90;;
78668;SDS011;67984;45.118;20.724;2023-09-07T00:40:42;6.60;;;4.32;;
78668;SDS011;67984;45.118;20.724;2023-09-07T00:50:43;4.40;;;3.72;;
78668;SDS011;67984;45.118;20.724;2023-09-07T01:00:43;7.68;;;3.70;;
78668;SDS011;67984;45.118;20.724;2023-09-07T01:10:44;4.05;;;3.63;;
78668;SDS011;67984;45.118;20.724;2023-09-07T01:20:45;9.57;;;4.27;;
78668;SDS011;67984;45.118;20.724;2023-09-07T01:30:46;7.70;;;3.85;;
78668;SDS011;67984;45.118;20.724;2023-09-07T01:40:47;7.85;;;4.35;;
78668;SDS011;67984;45.118;20.724;2023-09-07T01:50:51;6.97;;;3.58;;
78668;SDS011;67984;45.118;20.724;2023-09-07T02:00:53;4.68;;;2.92;;
78668;SDS011;67984;45.118;20.724;2023-09-07T02:10:57;7.68;;;3.25;;
78668;SDS011;67984;45.118;20.724;2023-09-07T02:21:01;6.30;;;3.88;;
78668;SDS011;67984;45.118;20.724;2023-09-07T02:31:02;6.07;;;4.40;;
78668;SDS011;67984;45.118;20.724;2023-09-07T02:41:03;9.80;;;3.70;;
78668;SDS011;67984;45.118;20.724;2023-09-07T02:51:04;5.07;;;3.47;;
78668;SDS011;67984;45.118;20.724;2023-09-07T03:01:06;6.93;;;4.20;;
78668;SDS011;67984;45.118;20.724;2023-09-07T03:11:09;7.80;;;3.88;;
78668;SDS011;67984;45.118;20.724;2023-09-07T03:21:10;7.10;;;3.90;;
78668;SDS011;67984;45.118;20.724;2023-09-07T03:31:11;5.27;;;4.40;;
78668;SDS011;67984;45.118;20.724;2023-09-07T03:41:11;5.38;;;3.75;;
78668;SDS011;67984;45.118;20.724;2023-09-07T03:51:12;6.50;;;5.73;;
78668;SDS011;67984;45.118;20.724;2023-09-07T04:01:14;9.65;;;4.30;;
78668;SDS011;67984;45.118;20.724;2023-09-07T04:11:14;6.75;;;3.85;;
78668;SDS011;67984;45.118;20.724;2023-09-07T04:21:15;15.70;;;5.70;;
78668;SDS011;67984;45.118;20.724;2023-09-07T04:31:16;8.47;;;4.73;;
78668;SDS011;67984;45.118;20.724;2023-09-07T04:41:16;9.07;;;4.00;;
78668;SDS011;67984;45.118;20.724;2023-09-07T04:51:17;5.00;;;3.25;;
78668;SDS011;67984;45.118;20.724;2023-09-07T05:01:18;7.63;;;3.88;;
78668;SDS011;67984;45.118;20.724;2023-09-07T05:11:19;6.23;;;5.60;;
78668;SDS011;67984;45.118;20.724;2023-09-07T05:21:20;8.52;;;5.63;;
78668;SDS011;67984;45.118;20.724;2023-09-07T05:31:21;12.52;;;4.53;;
78668;SDS011;67984;45.118;20.724;2023-09-07T05:41:22;10.10;;;5.50;;
78668;SDS011;67984;45.118;20.724;2023-09-07T05:51:22;16.25;;;6.40;;
78668;SDS011;67984;45.118;20.724;2023-09-07T06:01:23;14.02;;;4.88;;
78668;SDS011;67984;45.118;20.724;2023-09-07T06:11:25;5.38;;;4.30;;
78668;SDS011;67984;45.118;20.724;2023-09-07T06:21:25;5.40;;;2.05;;
78668;SDS011;67984;45.118;20.724;2023-09-07T06:31:26;4.22;;;2.60;;
78668;SDS011;67984;45.118;20.724;2023-09-07T06:41:27;3.23;;;1.80;;
78668;SDS011;67984;45.118;20.724;2023-09-07T06:51:28;10.63;;;2.17;;
78668;SDS011;67984;45.118;20.724;2023-09-07T07:01:28;2.50;;;1.37;;
78668;SDS011;67984;45.118;20.724;2023-09-07T07:11:29;4.53;;;1.73;;
78668;SDS011;67984;45.118;20.724;2023-09-07T07:21:30;2.80;;;1.75;;
78668;SDS011;67984;45.118;20.724;2023-09-07T07:31:31;14.15;;;1.83;;
78668;SDS011;67984;45.118;20.724;2023-09-07T07:41:31;9.87;;;1.77;;
78668;SDS011;67984;45.118;20.724;2023-09-07T07:51:32;9.03;;;1.87;;
78668;SDS011;67984;45.118;20.724;2023-09-07T08:01:34;4.82;;;1.95;;
78668;SDS011;67984;45.118;20.724;2023-09-07T08:11:35;3.47;;;1.50;;
78668;SDS011;67984;45.118;20.724;2023-09-07T08:21:36;7.18;;;1.70;;
78668;SDS011;67984;45.118;20.724;2023-09-07T08:31:38;3.30;;;1.70;;
78668;SDS011;67984;45.118;20.724;2023-09-07T08:41:39;6.85;;;2.40;;
78668;SDS011;67984;45.118;20.724;2023-09-07T08:51:43;5.90;;;1.88;;
78668;SDS011;67984;45.118;20.724;2023-09-07T09:01:45;3.65;;;2.30;;
78668;SDS011;67984;45.118;20.724;2023-09-07T09:11:46;5.32;;;1.90;;
78668;SDS011;67984;45.118;20.724;2023-09-07T09:21:47;6.07;;;2.00;;
78668;SDS011;67984;45.118;20.724;2023-09-07T09:31:51;3.42;;;2.08;;
78668;SDS011;67984;45.118;20.724;2023-09-07T09:41:52;3.85;;;2.00;;
78668;SDS011;67984;45.118;20.724;2023-09-07T09:51:52;3.88;;;1.80;;
78668;SDS011;67984;45.118;20.724;2023-09-07T10:01:53;6.25;;;1.88;;
78668;SDS011;67984;45.118;20.724;2023-09-07T10:11:57;9.00;;;2.17;;
78668;SDS011;67984;45.118;20.724;2023-09-07T10:21:58;3.03;;;2.00;;
78668;SDS011;67984;45.118;20.724;2023-09-07T10:41:59;7.32;;;2.13;;
78668;SDS011;67984;45.118;20.724;2023-09-07T10:52:00;4.33;;;1.50;;
78668;SDS011;67984;45.118;20.724;2023-09-07T11:02:04;3.23;;;1.80;;
78668;SDS011;67984;45.118;20.724;2023-09-07T11:12:05;4.90;;;1.63;;
78668;SDS011;67984;45.118;20.724;2023-09-07T11:22:09;4.20;;;1.83;;
78668;SDS011;67984;45.118;20.724;2023-09-07T11:32:10;2.30;;;1.40;;
78668;SDS011;67984;45.118;20.724;2023-09-07T11:42:11;2.08;;;1.83;;
78668;SDS011;67984;45.118;20.724;2023-09-07T11:52:12;6.78;;;2.30;;
78668;SDS011;67984;45.118;20.724;2023-09-07T12:02:12;6.88;;;1.73;;
78668;SDS011;67984;45.118;20.724;2023-09-07T12:12:15;3.70;;;2.00;;
78668;SDS011;67984;45.118;20.724;2023-09-07T12:22:15;4.78;;;1.45;;
78668;SDS011;67984;45.118;20.724;2023-09-07T12:32:16;8.38;;;2.28;;
78668;SDS011;67984;45.118;20.724;2023-09-07T12:42:17;2.42;;;1.55;;
78668;SDS011;67984;45.118;20.724;2023-09-07T12:52:18;10.15;;;2.15;;
78668;SDS011;67984;45.118;20.724;2023-09-07T13:02:18;2.90;;;1.53;;
78668;SDS011;67984;45.118;20.724;2023-09-07T13:12:19;4.90;;;1.67;;
78668;SDS011;67984;45.118;20.724;2023-09-07T13:22:20;5.43;;;1.63;;
78668;SDS011;67984;45.118;20.724;2023-09-07T13:32:20;5.30;;;1.90;;
78668;SDS011;67984;45.118;20.724;2023-09-07T13:42:21;4.23;;;1.40;;
78668;SDS011;67984;45.118;20.724;2023-09-07T13:52:21;8.60;;;1.50;;
78668;SDS011;67984;45.118;20.724;2023-09-07T14:02:22;4.05;;;1.73;;
78668;SDS011;67984;45.118;20.724;2023-09-07T14:12:23;3.73;;;1.93;;
78668;SDS011;67984;45.118;20.724;2023-09-07T14:22:24;3.17;;;1.50;;
78668;SDS011;67984;45.118;20.724;2023-09-07T14:32:24;1.92;;;1.48;;
78668;SDS011;67984;45.118;20.724;2023-09-07T14:42:25;5.50;;;1.88;;
78668;SDS011;67984;45.118;20.724;2023-09-07T14:52:25;2.25;;;1.45;;
78668;SDS011;67984;45.118;20.724;2023-09-07T15:02:27;3.78;;;1.65;;
78668;SDS011;67984;45.118;20.724;2023-09-07T15:12:28;5.28;;;1.63;;
78668;SDS011;67984;45.118;20.724;2023-09-07T15:22:28;4.28;;;1.50;;
78668;SDS011;67984;45.118;20.724;2023-09-07T15:32:29;5.22;;;2.00;;
78668;SDS011;67984;45.118;20.724;2023-09-07T15:42:30;10.85;;;2.33;;
78668;SDS011;67984;45.118;20.724;2023-09-07T15:52:31;8.23;;;1.87;;
78668;SDS011;67984;45.118;20.724;2023-09-07T16:02:31;6.17;;;2.60;;
78668;SDS011;67984;45.118;20.724;2023-09-07T16:12:32;12.80;;;1.98;;
78668;SDS011;67984;45.118;20.724;2023-09-07T16:22:32;12.07;;;2.70;;
78668;SDS011;67984;45.118;20.724;2023-09-07T16:32:33;3.53;;;2.30;;
78668;SDS011;67984;45.118;20.724;2023-09-07T16:42:34;4.77;;;2.03;;
78668;SDS011;67984;45.118;20.724;2023-09-07T16:52:34;6.40;;;1.77;;
78668;SDS011;67984;45.118;20.724;2023-09-07T17:02:35;10.60;;;2.90;;
78668;SDS011;67984;45.118;20.724;2023-09-07T17:12:36;11.57;;;2.67;;
78668;SDS011;67984;45.118;20.724;2023-09-07T17:22:36;7.32;;;3.20;;
78668;SDS011;67984;45.118;20.724;2023-09-07T17:32:37;16.02;;;3.15;;
78668;SDS011;67984;45.118;20.724;2023-09-07T17:42:38;11.30;;;3.65;;
78668;SDS011;67984;45.118;20.724;2023-09-07T17:52:38;7.18;;;2.50;;
78668;SDS011;67984;45.118;20.724;2023-09-07T18:02:39;6.70;;;2.33;;
78668;SDS011;67984;45.118;20.724;2023-09-07T18:12:40;23.38;;;4.78;;
78668;SDS011;67984;45.118;20.724;2023-09-07T18:22:40;13.27;;;2.90;;
78668;SDS011;67984;45.118;20.724;2023-09-07T18:32:41;7.05;;;3.35;;
78668;SDS011;67984;45.118;20.724;2023-09-07T18:42:42;12.73;;;3.38;;
78668;SDS011;67984;45.118;20.724;2023-09-07T18:52:42;14.82;;;4.88;;
78668;SDS011;67984;45.118;20.724;2023-09-07T19:02:43;22.20;;;4.93;;
78668;SDS011;67984;45.118;20.724;2023-09-07T19:12:43;14.13;;;5.38;;
78668;SDS011;67984;45.118;20.724;2023-09-07T19:22:45;24.30;;;8.38;;
78668;SDS011;67984;45.118;20.724;2023-09-07T19:32:46;36.77;;;8.90;;
78668;SDS011;67984;45.118;20.724;2023-09-07T19:42:46;14.80;;;4.95;;
78668;SDS011;67984;45.118;20.724;2023-09-07T19:52:47;19.40;;;4.68;;
78668;SDS011;67984;45.118;20.724;2023-09-07T20:02:48;9.80;;;4.77;;
78668;SDS011;67984;45.118;20.724;2023-09-07T20:12:49;15.25;;;5.13;;
78668;SDS011;67984;45.118;20.724;2023-09-07T20:22:50;18.80;;;5.22;;
78668;SDS011;67984;45.118;20.724;2023-09-07T20:32:50;17.23;;;4.40;;
78668;SDS011;67984;45.118;20.724;2023-09-07T20:42:51;9.32;;;4.30;;
78668;SDS011;67984;45.118;20.724;2023-09-07T20:52:51;11.40;;;4.97;;
78668;SDS011;67984;45.118;20.724;2023-09-07T21:02:52;19.52;;;5.03;;
78668;SDS011;67984;45.118;20.724;2023-09-07T21:12:53;20.45;;;5.68;;
78668;SDS011;67984;45.118;20.724;2023-09-07T21:22:53;14.07;;;5.57;;
78668;SDS011;67984;45.118;20.724;2023-09-07T21:32:54;14.70;;;5.80;;
78668;SDS011;67984;45.118;20.724;2023-09-07T21:42:56;22.85;;;5.82;;
78668;SDS011;67984;45.118;20.724;2023-09-07T21:52:56;12.27;;;4.50;;
78668;SDS011;67984;45.118;20.724;2023-09-07T22:02:57;21.27;;;5.32;;
78668;SDS011;67984;45.118;20.724;2023-09-07T22:12:57;10.05;;;4.45;;
78668;SDS011;67984;45.118;20.724;2023-09-07T22:22:59;12.13;;;4.40;;
78668;SDS011;67984;45.118;20.724;2023-09-07T22:33:02;6.72;;;4.18;;
78668;SDS011;67984;45.118;20.724;2023-09-07T22:43:02;10.03;;;4.90;;
78668;SDS011;67984;45.118;20.724;2023-09-07T22:53:04;10.60;;;5.82;;
78668;SDS011;67984;45.118;20.724;2023-09-07T23:03:05;10.68;;;4.25;;
78668;SDS011;67984;45.118;20.724;2023-09-07T23:13:05;10.55;;;5.93;;
78668;SDS011;67984;45.118;20.724;2023-09-07T23:23:08;5.70;;;3.92;;
78668;SDS011;67984;45.118;20.724;2023-09-07T23:33:09;10.03;;;5.13;;
78668;SDS011;67984;45.118;20.724;2023-09-07T23:43:10;17.63;;;7.70;;
78668;SDS011;67984;45.118;20.724;2023-09-07T23:53:10;20.58;;;9.10;;
